createdAt,value
2019-01-26T00:02:09.585Z,82.08
2019-01-26T00:04:37.046Z,81.63
2019-01-26T00:07:04.105Z,81.92
2019-01-26T00:09:32.302Z,81.36
2019-01-26T00:12:00.363Z,82.36
2019-01-26T00:14:28.818Z,83.57
2019-01-26T00:16:56.181Z,82.58
2019-01-26T00:19:23.629Z,82.57
2019-01-26T00:21:51.290Z,82.57
2019-01-26T00:24:19.053Z,82.40
2019-01-26T00:26:46.411Z,83.40
2019-01-26T00:29:13.761Z,83.20
2019-01-26T00:31:42.670Z,82.46
2019-01-26T00:34:09.755Z,82.61
2019-01-26T00:36:37.931Z,82.68
2019-01-26T00:39:07.882Z,83.21
2019-01-26T00:41:35.416Z,83.70
2019-01-26T00:44:02.483Z,84.10
2019-01-26T00:46:29.594Z,84.26
2019-01-26T00:48:56.646Z,83.46
2019-01-26T00:51:24.047Z,84.64
2019-01-26T00:53:51.125Z,84.50
2019-01-26T00:56:18.183Z,84.75
2019-01-26T00:58:45.250Z,85.18
2019-01-26T01:01:12.851Z,84.64
2019-01-26T01:03:40.025Z,86.35
2019-01-26T01:06:07.175Z,85.42
2019-01-26T01:08:34.711Z,85.28
2019-01-26T01:11:02.064Z,85.85
2019-01-26T01:13:29.418Z,85.26
2019-01-26T01:15:56.788Z,85.64
2019-01-26T01:18:24.438Z,86.06
2019-01-26T01:20:52.101Z,85.57
2019-01-26T01:23:19.473Z,86.12
2019-01-26T01:25:46.806Z,85.75
2019-01-26T01:28:15.285Z,85.62
2019-01-26T01:30:42.637Z,86.19
2019-01-26T01:33:11.429Z,85.76
2019-01-26T01:35:38.501Z,86.49
2019-01-26T01:38:06.139Z,87.54
2019-01-26T01:40:33.485Z,86.90
2019-01-26T01:43:00.857Z,87.48
2019-01-26T01:45:28.310Z,88.01
2019-01-26T01:47:55.658Z,87.91
2019-01-26T01:50:23.014Z,88.52
2019-01-26T01:52:50.489Z,88.91
2019-01-26T01:55:19.670Z,88.26
2019-01-26T01:57:47.032Z,88.33
2019-01-26T02:00:19.755Z,88.42
2019-01-26T02:02:47.156Z,88.71
2019-01-26T02:05:14.594Z,87.79
2019-01-26T02:07:41.965Z,88.35
2019-01-26T02:10:11.048Z,87.93
2019-01-26T02:12:39.183Z,88.22
2019-01-26T02:15:07.403Z,88.08
2019-01-26T02:17:34.575Z,88.82
2019-01-26T02:20:03.768Z,89.94
2019-01-26T02:22:31.522Z,89.51
2019-01-26T02:24:59.082Z,90.75
2019-01-26T02:27:27.865Z,91.25
2019-01-26T02:29:55.971Z,91.71
2019-01-26T02:32:23.046Z,90.36
2019-01-26T02:34:50.750Z,90.28
2019-01-26T02:37:20.260Z,90.26
2019-01-26T02:39:47.925Z,90.00
2019-01-26T02:42:15.374Z,90.21
2019-01-26T02:44:42.725Z,89.51
2019-01-26T02:47:10.088Z,89.97
2019-01-26T02:49:39.585Z,89.90
2019-01-26T02:52:06.944Z,90.06
2019-01-26T02:54:36.144Z,90.18
2019-01-26T02:57:03.704Z,90.12
2019-01-26T02:59:31.893Z,89.99
2019-01-26T03:01:59.273Z,90.08
2019-01-26T03:04:26.687Z,91.00
2019-01-26T03:06:54.039Z,90.86
2019-01-26T03:09:21.498Z,91.38
2019-01-26T03:11:48.953Z,90.95
2019-01-26T03:14:16.306Z,90.55
2019-01-26T03:16:45.609Z,90.20
2019-01-26T03:19:12.687Z,91.56
2019-01-26T03:21:42.161Z,92.01
2019-01-26T03:24:12.484Z,92.07
2019-01-26T03:26:41.273Z,92.25
2019-01-26T03:29:10.155Z,92.59
2019-01-26T03:31:39.672Z,92.16
2019-01-26T03:34:07.031Z,92.40
2019-01-26T03:36:35.217Z,92.47
2019-01-26T03:39:02.325Z,91.77
2019-01-26T03:41:31.291Z,91.12
2019-01-26T03:43:59.000Z,91.13
2019-01-26T03:46:26.366Z,91.88
2019-01-26T03:48:53.830Z,92.17
2019-01-26T03:51:23.261Z,92.74
2019-01-26T03:53:50.348Z,92.59
2019-01-26T03:56:17.432Z,91.66
2019-01-26T03:58:45.595Z,93.51
2019-01-26T04:01:12.656Z,93.54
2019-01-26T04:03:39.737Z,93.17
2019-01-26T04:06:06.781Z,92.42
2019-01-26T04:08:34.352Z,92.92
2019-01-26T04:11:02.498Z,93.84
2019-01-26T04:13:30.227Z,93.38
2019-01-26T04:15:58.706Z,92.71
2019-01-26T04:18:26.022Z,92.20
2019-01-26T04:20:53.729Z,92.30
2019-01-26T04:23:21.162Z,91.84
2019-01-26T04:25:50.033Z,91.93
2019-01-26T04:28:17.526Z,91.60
2019-01-26T04:30:45.393Z,92.44
2019-01-26T04:33:13.053Z,92.78
2019-01-26T04:35:40.421Z,93.11
2019-01-26T04:38:07.965Z,93.05
2019-01-26T04:40:35.729Z,93.17
2019-01-26T04:43:03.192Z,93.39
2019-01-26T04:45:30.581Z,92.55
2019-01-26T04:47:57.897Z,93.00
2019-01-26T04:50:25.486Z,93.00
2019-01-26T04:52:53.230Z,92.68
2019-01-26T04:55:20.781Z,91.88
2019-01-26T04:57:48.134Z,92.87
2019-01-26T05:00:18.609Z,93.99
2019-01-26T05:02:46.029Z,93.12
2019-01-26T05:05:13.368Z,93.54
2019-01-26T05:07:42.255Z,93.57
2019-01-26T05:10:10.518Z,93.59
2019-01-26T05:12:37.892Z,93.52
2019-01-26T05:15:06.422Z,93.47
2019-01-26T05:17:39.190Z,92.87
2019-01-26T05:20:04.652Z,92.17
2019-01-26T05:22:31.746Z,92.03
2019-01-26T05:24:59.156Z,92.69
2019-01-26T05:27:26.229Z,92.57
2019-01-26T05:29:53.312Z,91.93
2019-01-26T05:32:20.378Z,91.84
2019-01-26T05:34:47.447Z,91.76
2019-01-26T05:37:15.329Z,92.12
2019-01-26T05:39:42.785Z,91.94
2019-01-26T05:42:10.547Z,91.40
2019-01-26T05:44:38.106Z,91.76
2019-01-26T05:47:05.769Z,93.44
2019-01-26T05:49:32.838Z,92.91
2019-01-26T05:52:00.084Z,93.18
2019-01-26T05:54:27.530Z,94.06
2019-01-26T05:56:55.711Z,93.65
2019-01-26T05:59:22.850Z,93.78
2019-01-26T06:01:50.252Z,94.43
2019-01-26T06:04:17.661Z,94.96
2019-01-26T06:06:45.440Z,94.15
2019-01-26T06:09:12.491Z,93.14
2019-01-26T06:11:40.254Z,93.99
2019-01-26T06:14:07.591Z,93.68
2019-01-26T06:16:34.787Z,93.61
2019-01-26T06:19:02.398Z,93.07
2019-01-26T06:21:30.267Z,93.54
2019-01-26T06:23:57.322Z,93.02
2019-01-26T06:26:24.669Z,93.31
2019-01-26T06:28:51.752Z,93.90
2019-01-26T06:31:18.821Z,94.10
2019-01-26T06:33:46.250Z,93.35
2019-01-26T06:36:14.850Z,92.97
2019-01-26T06:38:42.157Z,93.29
2019-01-26T06:41:10.025Z,93.54
2019-01-26T06:43:37.451Z,93.46
2019-01-26T06:46:04.833Z,93.21
2019-01-26T06:48:31.974Z,93.49
2019-01-26T06:50:59.339Z,93.48
2019-01-26T06:53:27.207Z,93.29
2019-01-26T06:55:54.268Z,93.28
2019-01-26T06:58:22.013Z,92.57
2019-01-26T07:00:49.370Z,93.16
2019-01-26T07:03:17.046Z,93.26
2019-01-26T07:05:55.655Z,92.88
2019-01-26T07:08:23.718Z,93.20
2019-01-26T07:10:51.075Z,93.62
2019-01-26T07:13:18.430Z,93.00
2019-01-26T07:15:45.630Z,93.15
2019-01-26T07:18:13.447Z,93.06
2019-01-26T07:20:40.803Z,92.53
2019-01-26T07:23:08.288Z,92.48
2019-01-26T07:25:35.877Z,91.23
2019-01-26T07:28:03.245Z,92.11
2019-01-26T07:30:30.541Z,92.11
2019-01-26T07:32:57.608Z,91.98
2019-01-26T07:35:24.929Z,93.03
2019-01-26T07:37:51.985Z,92.57
2019-01-26T07:40:19.402Z,92.44
2019-01-26T07:42:46.457Z,93.53
2019-01-26T07:45:13.745Z,92.90
2019-01-26T07:47:41.077Z,93.05
2019-01-26T07:50:10.816Z,93.50
2019-01-26T07:52:38.554Z,93.05
2019-01-26T07:55:06.889Z,92.84
2019-01-26T07:57:34.390Z,91.93
2019-01-26T08:00:01.851Z,92.17
2019-01-26T08:02:29.417Z,92.43
2019-01-26T08:04:57.374Z,92.36
2019-01-26T08:07:24.534Z,92.93
2019-01-26T08:09:51.614Z,92.95
2019-01-26T08:12:19.162Z,92.57
2019-01-26T08:14:47.530Z,92.58
2019-01-26T08:17:14.894Z,91.19
2019-01-26T08:19:42.730Z,91.76
2019-01-26T08:22:10.499Z,91.65
2019-01-26T08:24:38.258Z,91.00
2019-01-26T08:27:05.718Z,91.50
2019-01-26T08:29:33.583Z,91.48
2019-01-26T08:32:00.939Z,91.23
2019-01-26T08:34:29.319Z,91.29
2019-01-26T08:36:56.669Z,90.76
2019-01-26T08:39:24.026Z,91.46
2019-01-26T08:41:51.089Z,91.39
2019-01-26T08:44:19.070Z,92.07
2019-01-26T08:46:46.130Z,91.12
2019-01-26T08:49:13.582Z,90.94
2019-01-26T08:51:40.651Z,90.73
2019-01-26T08:54:07.733Z,89.20
2019-01-26T08:56:34.797Z,89.59
2019-01-26T08:59:01.878Z,89.00
2019-01-26T09:01:29.030Z,88.52
2019-01-26T09:04:04.085Z,89.75
2019-01-26T09:06:38.316Z,89.26
2019-01-26T09:09:10.761Z,89.05
2019-01-26T09:11:38.268Z,88.84
2019-01-26T09:14:05.555Z,89.36
2019-01-26T09:16:32.679Z,89.48
2019-01-26T09:19:00.106Z,89.67
2019-01-26T09:21:27.792Z,89.10
2019-01-26T09:23:55.863Z,88.73
2019-01-26T09:26:22.973Z,88.16
2019-01-26T09:28:50.673Z,87.64
2019-01-26T09:31:17.755Z,87.51
2019-01-26T09:33:45.279Z,87.26
2019-01-26T09:36:13.360Z,86.63
2019-01-26T09:38:41.010Z,87.30
2019-01-26T09:41:08.674Z,86.75
2019-01-26T09:43:35.756Z,86.94
2019-01-26T09:46:03.586Z,86.76
2019-01-26T09:48:30.710Z,87.95
2019-01-26T09:50:58.721Z,86.51
2019-01-26T09:53:26.058Z,85.25
2019-01-26T09:55:53.824Z,84.72
2019-01-26T09:58:21.192Z,85.05
2019-01-26T10:00:48.299Z,85.44
2019-01-26T10:03:15.382Z,85.47
2019-01-26T10:05:42.570Z,85.52
2019-01-26T10:08:10.294Z,86.23
2019-01-26T10:10:37.736Z,85.41
2019-01-26T10:13:04.920Z,84.93
2019-01-26T10:15:33.828Z,85.70
2019-01-26T10:18:01.347Z,84.86
2019-01-26T10:20:30.747Z,85.17
2019-01-26T10:22:58.202Z,84.96
2019-01-26T10:25:27.472Z,86.21
2019-01-26T10:27:55.266Z,84.31
2019-01-26T10:30:30.818Z,84.71
2019-01-26T10:32:57.878Z,84.60
2019-01-26T10:35:31.502Z,83.85
2019-01-26T10:37:59.944Z,83.37
2019-01-26T10:40:45.117Z,83.97
2019-01-26T10:43:14.415Z,83.69
2019-01-26T10:45:41.598Z,83.32
2019-01-26T10:48:09.327Z,81.68
2019-01-26T10:50:36.785Z,82.83
2019-01-26T10:53:04.239Z,84.45
2019-01-26T10:55:31.420Z,84.35
2019-01-26T10:57:58.846Z,84.00
2019-01-26T11:00:26.406Z,83.28
2019-01-26T11:02:53.470Z,82.43
2019-01-26T11:05:20.968Z,82.02
2019-01-26T11:07:48.369Z,80.97
2019-01-26T11:10:15.562Z,79.94
2019-01-26T11:12:42.766Z,80.34
2019-01-26T11:15:10.435Z,80.79
2019-01-26T11:17:37.628Z,79.84
2019-01-26T11:20:06.366Z,81.36
2019-01-26T11:22:33.722Z,81.45
2019-01-26T11:25:01.188Z,81.27
2019-01-26T11:27:28.258Z,81.57
2019-01-26T11:29:55.683Z,81.90
2019-01-26T11:32:23.546Z,81.38
2019-01-26T11:34:50.721Z,81.29
2019-01-26T11:37:18.167Z,80.20
2019-01-26T11:39:50.252Z,80.76
2019-01-26T11:42:17.346Z,80.70
2019-01-26T11:45:05.829Z,81.56
2019-01-26T11:47:33.010Z,81.75
2019-01-26T11:50:03.290Z,82.37
2019-01-26T11:52:31.060Z,82.50
2019-01-26T11:55:07.422Z,82.52
2019-01-26T11:57:37.314Z,82.63
2019-01-26T12:00:26.849Z,83.78
2019-01-26T12:03:00.477Z,82.61
2019-01-26T12:05:38.473Z,81.93
2019-01-26T12:08:06.622Z,82.43
2019-01-26T12:10:34.782Z,81.64
2019-01-26T12:13:01.877Z,81.41
2019-01-26T12:15:28.940Z,80.93
2019-01-26T12:17:56.373Z,80.94
2019-01-26T12:20:23.873Z,80.26
2019-01-26T12:22:52.281Z,80.23
2019-01-26T12:25:19.438Z,80.88
2019-01-26T12:27:46.525Z,80.65
2019-01-26T12:30:13.712Z,80.75
2019-01-26T12:32:40.781Z,80.88
2019-01-26T12:35:10.110Z,80.20
2019-01-26T12:37:37.662Z,80.86
2019-01-26T12:40:05.263Z,80.91
2019-01-26T12:42:32.479Z,80.48
2019-01-26T12:45:01.643Z,80.43
2019-01-26T12:47:29.118Z,80.78
2019-01-26T12:49:56.579Z,82.00
2019-01-26T12:52:24.707Z,81.67
2019-01-26T12:54:51.826Z,81.88
2019-01-26T12:57:19.257Z,82.54
2019-01-26T12:59:46.751Z,81.95
2019-01-26T13:02:13.837Z,80.86
2019-01-26T13:04:41.736Z,81.12
2019-01-26T13:07:08.832Z,81.22
2019-01-26T13:09:37.040Z,80.96
2019-01-26T13:12:04.234Z,81.17
2019-01-26T13:14:32.325Z,81.65
2019-01-26T13:16:59.678Z,81.45
2019-01-26T13:19:27.276Z,81.39
2019-01-26T13:21:55.617Z,81.26
2019-01-26T13:24:22.714Z,80.40
2019-01-26T13:26:50.887Z,81.02
2019-01-26T13:29:18.073Z,80.63
2019-01-26T13:31:46.600Z,80.86
2019-01-26T13:34:14.785Z,81.34
2019-01-26T13:36:42.198Z,81.32
2019-01-26T13:39:09.675Z,80.61
2019-01-26T13:41:37.371Z,81.57
2019-01-26T13:44:04.459Z,81.70
2019-01-26T13:46:32.336Z,81.56
2019-01-26T13:48:59.434Z,81.70
2019-01-26T13:51:26.540Z,81.48
2019-01-26T13:53:53.986Z,81.34
2019-01-26T13:56:21.546Z,81.38
2019-01-26T13:58:50.162Z,82.29
2019-01-26T14:01:17.483Z,81.95
2019-01-26T14:03:44.949Z,81.19
2019-01-26T14:06:12.806Z,81.72
2019-01-26T14:08:40.262Z,82.42
2019-01-26T14:11:07.341Z,83.22
2019-01-26T14:13:34.879Z,82.86
2019-01-26T14:16:02.286Z,82.41
2019-01-26T14:18:29.687Z,83.53
2019-01-26T14:20:56.886Z,83.69
2019-01-26T14:23:24.327Z,82.41
2019-01-26T14:25:51.422Z,82.90
2019-01-26T14:28:20.026Z,84.24
2019-01-26T14:30:55.401Z,84.10
2019-01-26T14:33:22.804Z,84.21
2019-01-26T14:35:50.312Z,85.13
2019-01-26T14:38:17.505Z,85.60
2019-01-26T14:40:45.297Z,86.45
2019-01-26T14:43:12.652Z,86.83
2019-01-26T14:45:40.722Z,85.07
2019-01-26T14:48:08.754Z,85.53
2019-01-26T14:50:39.321Z,86.02
2019-01-26T14:53:06.667Z,86.59
2019-01-26T14:55:35.573Z,88.17
2019-01-26T14:58:03.053Z,87.30
2019-01-26T15:00:31.629Z,88.20
2019-01-26T15:02:58.970Z,86.81
2019-01-26T15:05:26.949Z,86.40
2019-01-26T15:07:54.692Z,87.19
2019-01-26T15:10:22.149Z,87.60
2019-01-26T15:12:49.364Z,87.84
2019-01-26T15:15:17.564Z,89.60
2019-01-26T15:17:44.974Z,88.35
2019-01-26T15:20:17.811Z,89.16
2019-01-26T15:22:45.680Z,90.21
2019-01-26T15:25:13.545Z,89.31
2019-01-26T15:27:40.965Z,89.14
2019-01-26T15:30:15.058Z,88.89
2019-01-26T15:32:42.152Z,90.41
2019-01-26T15:35:09.663Z,90.17
2019-01-26T15:37:37.858Z,89.79
2019-01-26T15:40:05.686Z,89.51
2019-01-26T15:42:32.970Z,89.99
2019-01-26T15:45:00.311Z,91.04
2019-01-26T15:47:27.410Z,91.44
2019-01-26T15:49:54.498Z,91.03
2019-01-26T15:52:21.635Z,91.14
2019-01-26T15:54:49.873Z,90.75
2019-01-26T15:57:18.022Z,90.61
2019-01-26T15:59:45.137Z,90.64
2019-01-26T16:02:12.430Z,90.25
2019-01-26T16:04:39.544Z,91.42
2019-01-26T16:07:06.662Z,91.87
2019-01-26T16:09:33.847Z,92.26
2019-01-26T16:12:00.930Z,92.58
2019-01-26T16:14:28.162Z,91.79
2019-01-26T16:16:55.249Z,91.37
2019-01-26T16:19:23.317Z,90.72
2019-01-26T16:21:50.767Z,90.43
2019-01-26T16:24:17.823Z,92.01
2019-01-26T16:26:44.870Z,91.69
2019-01-26T16:29:12.068Z,90.79
2019-01-26T16:31:39.143Z,90.66
2019-01-26T16:34:06.224Z,91.59
2019-01-26T16:36:34.430Z,90.77
2019-01-26T16:39:01.956Z,91.75
2019-01-26T16:41:31.256Z,92.49
2019-01-26T16:43:59.019Z,92.93
2019-01-26T16:46:26.436Z,92.52
2019-01-26T16:48:53.831Z,93.29
2019-01-26T16:51:21.043Z,93.94
2019-01-26T16:53:48.439Z,94.82
2019-01-26T16:56:16.609Z,95.69
2019-01-26T16:58:45.512Z,95.27
2019-01-26T17:01:12.590Z,92.33
2019-01-26T17:03:39.663Z,92.22
2019-01-26T17:06:07.131Z,93.62
2019-01-26T17:08:34.243Z,93.86
2019-01-26T17:11:01.332Z,94.27
2019-01-26T17:13:28.442Z,94.53
2019-01-26T17:15:55.509Z,94.25
2019-01-26T17:18:24.599Z,94.28
2019-01-26T17:20:52.559Z,93.90
2019-01-26T17:23:20.379Z,93.30
2019-01-26T17:25:47.919Z,93.44
2019-01-26T17:28:15.237Z,94.70
2019-01-26T17:30:43.060Z,94.67
2019-01-26T17:33:10.515Z,94.34
2019-01-26T17:35:37.626Z,94.56
2019-01-26T17:38:05.122Z,94.37
2019-01-26T17:40:32.787Z,93.70
2019-01-26T17:42:59.905Z,93.53
2019-01-26T17:45:27.990Z,93.68
2019-01-26T17:47:55.463Z,92.63
2019-01-26T17:50:24.194Z,93.17
2019-01-26T17:52:51.310Z,93.20
2019-01-26T17:55:18.746Z,93.34
2019-01-26T17:57:46.202Z,93.19
2019-01-26T18:00:22.395Z,94.30
2019-01-26T18:02:52.308Z,94.66
2019-01-26T18:05:19.374Z,93.76
2019-01-26T18:07:49.430Z,92.08
2019-01-26T18:10:18.637Z,93.44
2019-01-26T18:12:45.998Z,93.36
2019-01-26T18:15:14.007Z,92.81
2019-01-26T18:17:41.794Z,93.09
2019-01-26T18:20:12.359Z,93.27
2019-01-26T18:22:40.531Z,93.15
2019-01-26T18:25:07.751Z,94.10
2019-01-26T18:27:34.834Z,94.94
2019-01-26T18:30:02.194Z,95.15
2019-01-26T18:32:29.841Z,94.74
2019-01-26T18:34:56.922Z,95.81
2019-01-26T18:37:25.158Z,95.10
2019-01-26T18:39:52.835Z,95.09
2019-01-26T18:42:20.909Z,95.06
2019-01-26T18:44:48.462Z,93.79
2019-01-26T18:47:16.435Z,94.80
2019-01-26T18:49:44.403Z,94.05
2019-01-26T18:52:11.858Z,93.95
2019-01-26T18:54:39.750Z,94.84
2019-01-26T18:57:07.203Z,95.04
2019-01-26T18:59:35.977Z,95.91
2019-01-26T19:02:03.181Z,95.00
2019-01-26T19:04:44.326Z,95.04
2019-01-26T19:07:11.939Z,95.42
2019-01-26T19:09:39.020Z,94.61
2019-01-26T19:12:06.362Z,95.76
2019-01-26T19:14:34.332Z,96.18
2019-01-26T19:17:01.439Z,96.30
2019-01-26T19:19:30.709Z,95.01
2019-01-26T19:21:57.815Z,96.54
2019-01-26T19:24:25.289Z,96.82
2019-01-26T19:26:52.351Z,96.78
2019-01-26T19:29:19.742Z,95.64
2019-01-26T19:31:47.154Z,96.67
2019-01-26T19:34:14.641Z,97.09
2019-01-26T19:36:42.185Z,96.32
2019-01-26T19:39:09.605Z,95.07
2019-01-26T19:41:38.303Z,95.73
2019-01-26T19:44:07.915Z,95.64
2019-01-26T19:46:36.110Z,96.80
2019-01-26T19:49:03.247Z,95.53
2019-01-26T19:51:30.459Z,95.75
2019-01-26T19:53:58.256Z,96.40
2019-01-26T19:56:25.643Z,96.46
2019-01-26T19:58:54.373Z,95.52
2019-01-26T20:01:21.479Z,94.88
2019-01-26T20:03:48.664Z,96.29
2019-01-26T20:06:15.823Z,97.33
2019-01-26T20:08:43.103Z,96.68
2019-01-26T20:11:10.181Z,96.62
2019-01-26T20:13:39.051Z,97.43
2019-01-26T20:16:06.482Z,95.92
2019-01-26T20:18:35.170Z,97.47
2019-01-26T20:21:02.650Z,96.83
2019-01-26T20:23:31.523Z,97.49
2019-01-26T20:26:00.105Z,97.39
2019-01-26T20:28:27.865Z,97.93
2019-01-26T20:30:54.929Z,97.57
2019-01-26T20:33:22.989Z,97.10
2019-01-26T20:35:50.561Z,97.88
2019-01-26T20:38:18.286Z,97.52
2019-01-26T20:40:45.366Z,97.95
2019-01-26T20:43:14.531Z,96.61
2019-01-26T20:45:41.876Z,96.65
2019-01-26T20:48:09.262Z,97.50
2019-01-26T20:50:36.569Z,96.28
2019-01-26T20:53:06.871Z,97.49
2019-01-26T20:55:35.980Z,97.22
2019-01-26T20:58:03.557Z,97.52
2019-01-26T21:00:31.569Z,97.12
2019-01-26T21:03:00.139Z,97.05
2019-01-26T21:05:27.260Z,96.94
2019-01-26T21:07:56.395Z,97.30
2019-01-26T21:10:26.240Z,96.69
2019-01-26T21:12:53.706Z,97.63
2019-01-26T21:15:20.893Z,98.10
2019-01-26T21:17:48.081Z,97.44
2019-01-26T21:20:16.946Z,97.71
2019-01-26T21:22:50.053Z,97.08
2019-01-26T21:25:17.827Z,97.54
2019-01-26T21:27:46.202Z,97.35
2019-01-26T21:30:17.159Z,97.02
2019-01-26T21:32:44.518Z,96.36
2019-01-26T21:35:11.603Z,96.64
2019-01-26T21:37:38.685Z,97.63
2019-01-26T21:40:11.714Z,97.73
2019-01-26T21:42:40.104Z,96.95
2019-01-26T21:45:09.435Z,97.66
2019-01-26T21:47:36.642Z,96.42
2019-01-26T21:50:06.290Z,96.86
2019-01-26T21:52:33.367Z,97.74
2019-01-26T21:55:00.903Z,98.12
2019-01-26T21:57:27.979Z,97.62
2019-01-26T21:59:55.167Z,96.76
2019-01-26T22:02:25.223Z,97.20
2019-01-26T22:04:52.603Z,97.89
2019-01-26T22:07:19.678Z,97.05
2019-01-26T22:09:47.284Z,96.74
2019-01-26T22:12:15.152Z,96.54
2019-01-26T22:14:42.750Z,96.74
2019-01-26T22:17:09.858Z,96.52
2019-01-26T22:19:37.040Z,95.55
2019-01-26T22:22:04.455Z,96.47
2019-01-26T22:24:32.238Z,96.27
2019-01-26T22:26:59.647Z,96.35
2019-01-26T22:29:31.241Z,96.78
2019-01-26T22:31:56.252Z,96.02
2019-01-26T22:34:24.402Z,95.63
2019-01-26T22:36:51.767Z,94.50
2019-01-26T22:39:18.887Z,95.02
2019-01-26T22:41:46.575Z,95.17
2019-01-26T22:44:13.703Z,94.83
2019-01-26T22:46:41.489Z,95.32
2019-01-26T22:49:08.951Z,94.65
2019-01-26T22:51:37.128Z,94.52
2019-01-26T22:54:04.874Z,94.81
2019-01-26T22:56:32.338Z,94.40
2019-01-26T22:58:59.427Z,94.78
2019-01-26T23:01:31.949Z,94.00
2019-01-26T23:04:36.965Z,94.21
2019-01-26T23:07:35.585Z,93.31
2019-01-26T23:10:48.970Z,94.74
2019-01-26T23:13:43.456Z,94.03
2019-01-26T23:16:51.814Z,93.92
2019-01-26T23:19:26.163Z,93.35
2019-01-26T23:22:27.763Z,92.79
2019-01-26T23:25:24.562Z,92.52
2019-01-26T23:28:12.468Z,92.92
2019-01-26T23:31:19.675Z,92.11
2019-01-26T23:33:51.003Z,92.37
2019-01-26T23:36:18.615Z,93.51
2019-01-26T23:38:46.699Z,92.30
2019-01-26T23:41:13.847Z,92.64
2019-01-26T23:43:41.563Z,93.59
2019-01-26T23:46:09.652Z,92.74
2019-01-26T23:48:41.024Z,92.47
2019-01-26T23:51:08.542Z,92.14
2019-01-26T23:53:36.200Z,93.05
2019-01-26T23:56:03.476Z,92.96
2019-01-26T23:58:31.114Z,93.39
